Terminal Aerodrome Forecast
Issued by NWS Upton, NY

Home | Current Version | Previous Version | Text Only | Print | Product List | Glossary On
Versions: 1 2 3 4 5 6 7 8 9 10 11 12 13 14 15 16 17 18 19 20 21 22 23 24 25 26 27 28 29 30 31 32 33 34 35 36 37 38 39
000
FTUS41 KOKX 161900 AAA
TAFJFK
TAF AMD
KJFK 161930Z 1620/1724 34015G22KT P6SM FEW050
     FM162200 36014KT P6SM FEW050
     FM170200 03012KT P6SM SCT250
     FM170900 04010KT P6SM FEW030 SCT250
     FM171500 07014KT P6SM FEW040 SCT250
     FM171900 10018KT P6SM FEW040 SCT250=

USA.gov is the U.S. government's official web portal to all federal, state and local government web resources and services.